Time;durP1;ratioP1;P1;durP2;ratioP2;P2;SDS_P1;SDS_P2;PMS_P1;PMS_P2;Temp;Humidity;BMP_temperature;BMP_pressure;BME280_temperature;BME280_humidity;BME280_pressure;Samples;Min_cycle;Max_cycle;Signal;HPM_P1;HPM_P2
2022/09/25 00:01:50;;;;;;;24.50;18.33;;;13.00;99.90;;;;;;5100951;28;20297;-83
2022/09/25 00:04:19;;;;;;;23.53;17.27;;;13.00;99.90;;;;;;5104522;28;20202;-82
2022/09/25 00:06:47;;;;;;;25.80;17.40;;;13.00;99.90;;;;;;5103172;28;20286;-83
2022/09/25 00:09:18;;;;;;;24.03;17.80;;;13.00;99.90;;;;;;5102821;28;20237;-83
2022/09/25 00:11:45;;;;;;;23.47;17.03;;;13.00;99.90;;;;;;5102293;28;20225;-83
2022/09/25 00:14:14;;;;;;;23.80;16.50;;;12.80;99.90;;;;;;5101398;28;20208;-83
2022/09/25 00:16:40;;;;;;;23.43;16.77;;;13.00;99.90;;;;;;5101998;28;20591;-83
2022/09/25 00:21:54;;;;;;;21.13;15.40;;;13.00;99.90;;;;;;5068137;28;20221;-83
2022/09/25 00:24:21;;;;;;;21.10;15.60;;;13.00;99.90;;;;;;5110755;28;20202;-83
2022/09/25 00:26:47;;;;;;;23.47;16.47;;;12.90;99.90;;;;;;5100510;28;20217;-83
2022/09/25 00:29:18;;;;;;;22.87;16.47;;;12.90;99.90;;;;;;5088360;28;20213;-83
2022/09/25 00:31:45;;;;;;;21.90;15.47;;;12.90;99.90;;;;;;5081808;28;20248;-83
2022/09/25 00:34:11;;;;;;;20.20;15.37;;;13.00;99.90;;;;;;5099411;28;20194;-83
2022/09/25 00:36:39;;;;;;;21.23;16.00;;;12.90;99.90;;;;;;5102283;28;20225;-83
2022/09/25 00:39:06;;;;;;;21.50;15.27;;;12.90;99.90;;;;;;5102839;28;20197;-83
2022/09/25 00:41:33;;;;;;;23.97;15.83;;;12.90;99.90;;;;;;5101781;28;20995;-83
2022/09/25 00:44:02;;;;;;;20.40;14.83;;;12.90;99.90;;;;;;5102938;28;20202;-83
2022/09/25 00:46:33;;;;;;;21.30;15.80;;;13.00;99.90;;;;;;5100174;28;20255;-83
2022/09/25 00:49:04;;;;;;;20.20;14.60;;;12.90;99.90;;;;;;5102800;28;20236;-83
2022/09/25 00:51:40;;;;;;;23.13;16.57;;;13.00;99.90;;;;;;5102668;28;20201;-83
2022/09/25 00:54:10;;;;;;;22.70;16.70;;;13.00;99.90;;;;;;5101148;28;20228;-83
2022/09/25 00:56:41;;;;;;;23.87;17.20;;;12.90;99.90;;;;;;5104086;28;20213;-83
2022/09/25 00:59:13;;;;;;;23.80;17.47;;;12.90;99.90;;;;;;5108723;28;20208;-83
2022/09/25 01:01:41;;;;;;;21.73;15.77;;;13.00;99.90;;;;;;5102141;28;20217;-83
2022/09/25 01:04:12;;;;;;;21.73;15.37;;;12.90;99.90;;;;;;5101175;28;20197;-83
2022/09/25 01:06:39;;;;;;;24.90;17.40;;;13.00;99.90;;;;;;5102619;28;20228;-83
2022/09/25 01:09:06;;;;;;;23.07;15.77;;;12.90;99.90;;;;;;5102173;28;20198;-83
2022/09/25 01:11:33;;;;;;;22.93;16.53;;;12.90;99.90;;;;;;5101350;28;20212;-83
2022/09/25 01:14:04;;;;;;;21.70;15.73;;;13.00;99.90;;;;;;5098342;28;20186;-83
2022/09/25 01:16:37;;;;;;;22.27;15.83;;;13.00;99.90;;;;;;5097562;28;20230;-83
2022/09/25 01:19:26;;;;;;;23.30;16.73;;;12.90;99.90;;;;;;5095538;28;20197;-83
2022/09/25 01:21:55;;;;;;;22.93;17.20;;;13.00;99.90;;;;;;5075568;28;20240;-83
2022/09/25 01:24:52;;;;;;;22.73;16.63;;;13.00;99.90;;;;;;5080085;28;20201;-83
2022/09/25 01:27:42;;;;;;;23.07;16.60;;;13.00;99.90;;;;;;5097573;28;20197;-84
2022/09/25 01:30:17;;;;;;;24.80;17.57;;;13.00;99.90;;;;;;5096927;28;20259;-84
2022/09/25 01:32:54;;;;;;;23.97;17.27;;;12.90;99.90;;;;;;5099374;28;20201;-82
2022/09/25 01:35:31;;;;;;;23.90;17.30;;;12.90;99.90;;;;;;5097937;28;20720;-83
2022/09/25 01:38:06;;;;;;;24.03;16.10;;;12.90;99.90;;;;;;5103549;28;20272;-83
2022/09/25 01:40:39;;;;;;;23.53;16.93;;;12.90;99.90;;;;;;5119025;28;20204;-84
2022/09/25 01:43:13;;;;;;;23.93;16.93;;;12.90;99.90;;;;;;5098072;28;20316;-83
2022/09/25 01:45:45;;;;;;;25.23;17.13;;;13.00;99.90;;;;;;5077554;28;20230;-84
2022/09/25 01:48:15;;;;;;;21.93;15.77;;;12.90;99.90;;;;;;5077931;28;20205;-83
2022/09/25 01:50:46;;;;;;;20.43;14.07;;;12.80;99.90;;;;;;5097964;28;20205;-83
2022/09/25 01:53:20;;;;;;;22.60;13.87;;;12.80;99.90;;;;;;5097540;28;20210;-83
2022/09/25 01:55:50;;;;;;;20.47;13.13;;;12.80;99.90;;;;;;5099084;28;20307;-83
2022/09/25 01:58:23;;;;;;;23.77;12.00;;;12.80;99.90;;;;;;5098537;28;20194;-83
2022/09/25 02:00:58;;;;;;;20.43;12.87;;;12.80;99.90;;;;;;5097928;28;20185;-83
2022/09/25 02:03:31;;;;;;;21.57;13.30;;;12.80;99.90;;;;;;5099581;28;20198;-83
2022/09/25 02:06:02;;;;;;;21.07;13.77;;;12.70;99.90;;;;;;5098133;28;20221;-84
2022/09/25 02:08:33;;;;;;;22.67;13.90;;;12.70;99.90;;;;;;5098039;28;20201;-83
2022/09/25 02:11:03;;;;;;;20.93;13.33;;;12.70;99.90;;;;;;5096867;28;20186;-84
2022/09/25 02:13:37;;;;;;;20.43;13.20;;;12.70;99.90;;;;;;5097115;28;20197;-83
2022/09/25 02:16:10;;;;;;;22.53;13.63;;;12.70;99.90;;;;;;5096894;28;20221;-84
2022/09/25 02:21:29;;;;;;;18.77;12.90;;;12.70;99.90;;;;;;5097224;28;20219;-84
2022/09/25 02:24:01;;;;;;;21.57;13.70;;;12.60;99.90;;;;;;5096856;28;20197;-84
2022/09/25 02:26:30;;;;;;;22.10;13.30;;;12.70;99.90;;;;;;5098747;28;20591;-84
2022/09/25 02:28:58;;;;;;;20.00;13.20;;;12.60;99.90;;;;;;5099299;28;20212;-83
2022/09/25 02:31:34;;;;;;;21.33;12.73;;;12.80;99.90;;;;;;5097437;28;20216;-83
2022/09/25 02:34:02;;;;;;;20.43;13.10;;;12.70;99.90;;;;;;5098060;28;20196;-83
2022/09/25 02:36:31;;;;;;;20.33;13.30;;;12.60;99.90;;;;;;5098076;28;20221;-83
2022/09/25 02:38:58;;;;;;;19.53;13.67;;;12.70;99.90;;;;;;5096314;28;20206;-83
2022/09/25 02:41:37;;;;;;;19.10;11.97;;;12.70;99.90;;;;;;5097446;28;20217;-83
2022/09/25 02:44:16;;;;;;;19.60;12.47;;;12.80;99.90;;;;;;5095523;28;20197;-83
2022/09/25 02:46:55;;;;;;;18.60;12.47;;;12.60;99.90;;;;;;5096534;28;20243;-84
2022/09/25 02:49:28;;;;;;;21.40;13.40;;;12.60;99.90;;;;;;5076051;28;20547;-82
2022/09/25 02:52:03;;;;;;;22.30;13.87;;;12.60;99.90;;;;;;5095392;28;20194;-83
2022/09/25 02:54:35;;;;;;;24.17;14.47;;;12.50;99.90;;;;;;5097028;28;20188;-83
2022/09/25 02:57:06;;;;;;;24.30;15.13;;;12.60;99.90;;;;;;5105824;28;20308;-83
2022/09/25 02:59:36;;;;;;;25.03;15.57;;;12.50;99.90;;;;;;5083358;28;20291;-83
2022/09/25 03:02:04;;;;;;;25.63;16.20;;;12.50;99.90;;;;;;5090334;28;20242;-83
2022/09/25 03:04:35;;;;;;;23.63;16.13;;;12.50;99.90;;;;;;5095684;28;20200;-83
2022/09/25 03:07:02;;;;;;;26.87;17.03;;;12.50;99.90;;;;;;5097706;28;20228;-83
2022/09/25 03:09:30;;;;;;;25.43;16.67;;;12.50;99.90;;;;;;5096564;28;20205;-83
2022/09/25 03:11:58;;;;;;;26.37;17.00;;;12.40;99.90;;;;;;5097178;28;20217;-83
2022/09/25 03:14:27;;;;;;;25.37;17.20;;;12.50;99.90;;;;;;5094950;28;20214;-83
2022/09/25 03:16:56;;;;;;;27.40;17.87;;;12.50;99.90;;;;;;5096570;28;20229;-82
2022/09/25 03:19:26;;;;;;;24.33;17.83;;;12.50;99.90;;;;;;5097826;28;20205;-83
2022/09/25 03:21:54;;;;;;;27.37;18.07;;;12.40;99.90;;;;;;5096744;28;20290;-83
2022/09/25 03:24:21;;;;;;;25.00;16.07;;;12.40;99.90;;;;;;5096229;28;20574;-83
2022/09/25 03:26:48;;;;;;;26.63;16.83;;;12.40;99.90;;;;;;5097753;28;20223;-82
2022/09/25 03:29:16;;;;;;;23.37;15.47;;;12.50;99.90;;;;;;5096228;28;20293;-82
2022/09/25 03:31:44;;;;;;;25.30;15.43;;;12.40;99.90;;;;;;5095391;28;20637;-83
2022/09/25 03:34:13;;;;;;;25.57;17.10;;;12.50;99.90;;;;;;5097784;28;20206;-83
2022/09/25 03:36:42;;;;;;;25.73;16.57;;;12.50;99.90;;;;;;5095806;28;20595;-84
2022/09/25 03:39:09;;;;;;;22.73;15.57;;;12.50;99.90;;;;;;5097143;28;20201;-83
2022/09/25 03:41:37;;;;;;;24.27;15.67;;;12.50;99.90;;;;;;5096135;28;20279;-83
2022/09/25 03:44:04;;;;;;;28.97;16.37;;;12.50;99.90;;;;;;5094959;28;20198;-84
2022/09/25 03:46:33;;;;;;;22.20;15.50;;;12.50;99.90;;;;;;5090822;28;20214;-84
2022/09/25 03:49:01;;;;;;;25.50;16.57;;;12.50;99.90;;;;;;5095398;28;20303;-84
2022/09/25 03:51:29;;;;;;;25.67;17.33;;;12.50;99.90;;;;;;5099761;28;20206;-83
2022/09/25 03:53:58;;;;;;;25.17;17.57;;;12.40;99.90;;;;;;5095956;28;20220;-82
2022/09/25 03:56:27;;;;;;;26.67;17.20;;;12.40;99.90;;;;;;5096913;28;20230;-83
2022/09/25 03:58:54;;;;;;;22.53;16.57;;;12.50;99.90;;;;;;5097032;28;20656;-83
2022/09/25 04:01:21;;;;;;;25.40;16.33;;;12.40;99.90;;;;;;5096867;28;20207;-84
2022/09/25 04:03:49;;;;;;;27.47;18.10;;;12.40;99.90;;;;;;5096705;28;20681;-83
2022/09/25 04:06:18;;;;;;;26.77;16.53;;;12.50;99.90;;;;;;5095408;28;20226;-83
2022/09/25 04:08:46;;;;;;;27.17;19.63;;;12.40;99.90;;;;;;5100965;28;20718;-83
2022/09/25 04:11:15;;;;;;;27.20;17.77;;;12.60;99.90;;;;;;5102239;28;20217;-83
2022/09/25 04:13:43;;;;;;;27.00;17.97;;;12.50;99.90;;;;;;5099103;28;20190;-83
2022/09/25 04:16:10;;;;;;;26.97;17.17;;;12.50;99.90;;;;;;5097857;28;20222;-83
2022/09/25 04:18:39;;;;;;;25.83;16.73;;;12.40;99.90;;;;;;5102220;28;20288;-83
2022/09/25 04:21:08;;;;;;;28.00;17.03;;;12.50;99.90;;;;;;5105982;28;20208;-83
2022/09/25 04:23:36;;;;;;;27.63;17.00;;;12.50;99.90;;;;;;5099554;28;20290;-83
2022/09/25 04:26:03;;;;;;;30.43;17.40;;;12.40;99.90;;;;;;5082576;28;20222;-83
2022/09/25 04:28:31;;;;;;;22.70;16.27;;;12.40;99.90;;;;;;5080445;28;20202;-83
2022/09/25 04:30:59;;;;;;;27.20;15.07;;;12.40;99.90;;;;;;5079980;28;20210;-83
2022/09/25 04:36:10;;;;;;;27.80;16.37;;;12.40;99.90;;;;;;5099698;28;20342;-84
2022/09/25 04:38:37;;;;;;;26.07;17.50;;;12.40;99.90;;;;;;5099812;28;20193;-84
2022/09/25 04:41:04;;;;;;;28.10;17.10;;;12.40;99.90;;;;;;5098238;28;20210;-83
2022/09/25 04:43:33;;;;;;;26.77;16.30;;;12.40;99.90;;;;;;5098095;28;20235;-83
2022/09/25 04:46:01;;;;;;;22.90;15.67;;;12.50;99.90;;;;;;5099622;28;20292;-84
2022/09/25 04:48:28;;;;;;;22.73;15.77;;;12.40;99.90;;;;;;5098564;28;20205;-83
2022/09/25 04:50:55;;;;;;;27.37;15.90;;;12.40;99.90;;;;;;5099043;28;20206;-84
2022/09/25 04:53:22;;;;;;;26.80;16.30;;;12.50;99.90;;;;;;5098481;28;20915;-83
2022/09/25 04:55:50;;;;;;;27.30;15.53;;;12.40;99.90;;;;;;5098790;28;20221;-83
2022/09/25 04:58:18;;;;;;;22.73;15.13;;;12.40;99.90;;;;;;5099384;28;20194;-83
2022/09/25 05:00:46;;;;;;;28.23;14.33;;;12.50;99.90;;;;;;5098064;28;20658;-83
2022/09/25 05:03:13;;;;;;;22.90;14.40;;;12.50;99.90;;;;;;5097809;28;20717;-83
2022/09/25 05:05:39;;;;;;;25.17;15.10;;;12.50;99.90;;;;;;5098916;28;20244;-83
2022/09/25 05:08:06;;;;;;;20.80;14.30;;;12.40;99.90;;;;;;5099190;28;20563;-83
2022/09/25 05:10:34;;;;;;;23.10;13.57;;;12.50;99.90;;;;;;5099336;28;20194;-83
2022/09/25 05:13:03;;;;;;;20.60;14.10;;;12.60;99.90;;;;;;5090822;28;20259;-82
2022/09/25 05:15:32;;;;;;;24.70;15.10;;;12.50;99.90;;;;;;5095275;28;20217;-82
2022/09/25 05:18:05;;;;;;;24.13;13.80;;;12.50;99.90;;;;;;5098852;28;20194;-83
2022/09/25 05:20:33;;;;;;;21.90;14.40;;;12.50;99.90;;;;;;5099393;28;20194;-84
2022/09/25 05:23:00;;;;;;;22.07;13.93;;;12.50;99.90;;;;;;5097650;28;20225;-83
2022/09/25 05:25:27;;;;;;;23.63;14.07;;;12.50;99.90;;;;;;5098113;28;20320;-84
2022/09/25 05:27:57;;;;;;;22.43;13.33;;;12.50;99.90;;;;;;5098076;28;20201;-83
2022/09/25 05:30:24;;;;;;;22.27;13.27;;;12.50;99.90;;;;;;5097666;28;20205;-83
2022/09/25 05:32:52;;;;;;;21.57;13.13;;;12.50;99.90;;;;;;5098204;28;20197;-83
2022/09/25 05:35:22;;;;;;;22.00;13.13;;;12.50;99.90;;;;;;5097993;28;20221;-83
2022/09/25 05:37:50;;;;;;;20.87;12.63;;;12.50;99.90;;;;;;5097899;28;20201;-81
2022/09/25 05:40:19;;;;;;;23.57;12.77;;;12.50;99.90;;;;;;5097176;28;20212;-81
2022/09/25 05:42:47;;;;;;;20.50;12.73;;;12.50;99.90;;;;;;5096719;28;20626;-81
2022/09/25 05:45:14;;;;;;;24.53;13.07;;;12.50;99.90;;;;;;5096782;28;20241;-81
2022/09/25 05:47:42;;;;;;;20.53;12.97;;;12.50;99.90;;;;;;5096398;28;20602;-81
2022/09/25 05:50:12;;;;;;;22.37;12.57;;;12.50;99.90;;;;;;5095738;28;20421;-81
2022/09/25 05:52:41;;;;;;;20.27;11.40;;;12.60;99.90;;;;;;5096126;28;20880;-81
2022/09/25 05:55:09;;;;;;;22.00;11.33;;;12.50;99.90;;;;;;5091672;28;20233;-82
2022/09/25 05:57:37;;;;;;;18.83;10.93;;;12.50;99.90;;;;;;5093439;28;20804;-81
2022/09/25 06:00:06;;;;;;;18.97;10.10;;;12.50;99.90;;;;;;5093171;28;20201;-81
2022/09/25 06:02:33;;;;;;;21.17;10.87;;;12.50;99.90;;;;;;5111301;28;20669;-81
2022/09/25 06:05:00;;;;;;;20.53;10.53;;;12.60;99.90;;;;;;5108262;28;20209;-81
2022/09/25 06:07:27;;;;;;;18.80;9.37;;;12.60;99.90;;;;;;5088091;28;20198;-84
2022/09/25 06:09:55;;;;;;;14.60;8.80;;;12.50;99.90;;;;;;5085362;28;20672;-80
2022/09/25 06:12:23;;;;;;;20.07;8.77;;;12.60;99.90;;;;;;5088964;28;20204;-80
2022/09/25 06:14:51;;;;;;;13.50;7.77;;;12.50;99.90;;;;;;5084846;28;20382;-81
2022/09/25 06:17:18;;;;;;;13.10;7.87;;;12.50;99.90;;;;;;5096173;28;20193;-80
2022/09/25 06:19:44;;;;;;;13.43;8.43;;;12.60;99.90;;;;;;5101026;28;20653;-80
2022/09/25 06:22:12;;;;;;;16.33;8.27;;;12.50;99.90;;;;;;5093178;28;20578;-81
2022/09/25 06:24:38;;;;;;;15.70;7.40;;;12.60;99.90;;;;;;5092182;28;20289;-80
2022/09/25 06:27:08;;;;;;;14.60;6.80;;;12.60;99.90;;;;;;5090803;28;20217;-81
2022/09/25 06:29:34;;;;;;;19.27;7.73;;;12.60;99.90;;;;;;5085711;28;20210;-81
2022/09/25 06:32:02;;;;;;;13.67;7.03;;;12.70;99.90;;;;;;5088848;28;20206;-80
2022/09/25 06:34:29;;;;;;;14.70;8.00;;;12.70;99.90;;;;;;5094589;28;20576;-80
2022/09/25 06:36:56;;;;;;;13.03;7.20;;;12.60;99.90;;;;;;5089077;28;20226;-81
2022/09/25 06:39:22;;;;;;;12.17;7.30;;;12.70;99.90;;;;;;5090640;28;20194;-81
2022/09/25 06:41:52;;;;;;;11.10;6.83;;;12.60;99.90;;;;;;5092984;28;20218;-81
2022/09/25 06:44:21;;;;;;;14.30;7.57;;;12.70;99.90;;;;;;5091507;28;20230;-81
2022/09/25 06:46:49;;;;;;;13.63;7.23;;;12.60;99.90;;;;;;5088032;28;20229;-81
2022/09/25 06:49:16;;;;;;;10.97;7.20;;;12.70;99.90;;;;;;5090072;28;20202;-81
2022/09/25 06:51:43;;;;;;;16.83;7.60;;;12.60;99.90;;;;;;5086500;28;20275;-81
2022/09/25 06:54:09;;;;;;;12.73;6.93;;;12.60;99.90;;;;;;5085637;28;20220;-81
2022/09/25 06:56:36;;;;;;;13.00;6.47;;;12.70;99.90;;;;;;5095596;28;20230;-81
2022/09/25 06:59:03;;;;;;;15.17;7.33;;;12.70;99.90;;;;;;5092157;28;20208;-82
2022/09/25 07:01:31;;;;;;;13.80;6.97;;;12.70;99.90;;;;;;5092556;28;20202;-83
2022/09/25 07:03:57;;;;;;;14.73;7.20;;;12.70;99.90;;;;;;5089838;28;20583;-81
2022/09/25 07:06:27;;;;;;;18.87;7.73;;;12.80;99.90;;;;;;5091201;28;20209;-81
2022/09/25 07:08:55;;;;;;;14.50;8.10;;;12.80;99.90;;;;;;5094047;28;20201;-81
2022/09/25 07:11:24;;;;;;;13.30;7.57;;;12.80;99.90;;;;;;5092279;28;20198;-81
2022/09/25 07:13:53;;;;;;;15.73;8.10;;;12.90;99.90;;;;;;5093840;28;20276;-81
2022/09/25 07:16:22;;;;;;;12.67;7.93;;;12.90;99.90;;;;;;5094067;28;20217;-81
2022/09/25 07:18:51;;;;;;;16.20;8.50;;;12.90;99.90;;;;;;5092080;28;20194;-81
2022/09/25 07:21:20;;;;;;;11.03;7.30;;;13.00;99.90;;;;;;5095774;28;20251;-80
2022/09/25 07:23:48;;;;;;;15.73;7.67;;;12.90;99.90;;;;;;5097000;28;20568;-81
2022/09/25 07:26:21;;;;;;;17.00;8.00;;;13.00;99.90;;;;;;5098642;28;20292;-80
2022/09/25 07:28:52;;;;;;;16.70;7.90;;;13.00;99.90;;;;;;5096078;28;20707;-81
2022/09/25 07:31:21;;;;;;;16.40;8.53;;;13.10;99.90;;;;;;5091168;28;20609;-81
2022/09/25 07:33:50;;;;;;;13.27;7.00;;;13.00;99.90;;;;;;5096383;28;20206;-81
2022/09/25 07:36:18;;;;;;;18.03;8.50;;;13.10;99.90;;;;;;5095936;28;20221;-81
2022/09/25 07:38:48;;;;;;;13.03;7.17;;;13.00;99.90;;;;;;5097992;28;20200;-81
2022/09/25 07:41:16;;;;;;;13.23;8.10;;;13.00;99.90;;;;;;5097984;28;20569;-81
2022/09/25 07:43:43;;;;;;;14.03;7.97;;;13.00;99.90;;;;;;5097522;28;20313;-81
2022/09/25 07:46:10;;;;;;;19.03;7.57;;;13.00;99.90;;;;;;5097710;28;20307;-81
2022/09/25 07:48:37;;;;;;;14.40;8.37;;;13.00;99.90;;;;;;5096296;28;20205;-81
2022/09/25 07:51:09;;;;;;;13.83;7.87;;;13.10;99.90;;;;;;5095503;28;20568;-80
2022/09/25 07:53:36;;;;;;;16.13;8.60;;;13.00;99.90;;;;;;5091741;28;20194;-81
2022/09/25 07:56:04;;;;;;;16.63;8.37;;;13.00;99.90;;;;;;5097657;28;20797;-80
2022/09/25 07:58:31;;;;;;;11.10;7.43;;;13.10;99.90;;;;;;5098929;28;20695;-80
2022/09/25 08:01:00;;;;;;;15.50;8.10;;;13.10;99.90;;;;;;5097278;28;20197;-80
2022/09/25 08:03:27;;;;;;;18.47;9.37;;;13.00;99.90;;;;;;5097129;28;20232;-80
2022/09/25 08:05:58;;;;;;;15.97;8.40;;;13.10;99.90;;;;;;5094381;28;20685;-79
2022/09/25 08:08:26;;;;;;;15.47;7.80;;;13.10;99.90;;;;;;5094579;28;20208;-81
2022/09/25 08:10:54;;;;;;;15.43;8.40;;;13.20;99.90;;;;;;5100059;28;20230;-81
2022/09/25 08:13:21;;;;;;;14.27;8.77;;;13.20;99.90;;;;;;5095102;28;20198;-81
2022/09/25 08:15:48;;;;;;;18.43;8.67;;;13.20;99.90;;;;;;5100176;28;20220;-80
2022/09/25 08:18:15;;;;;;;13.20;8.13;;;13.20;99.90;;;;;;5101409;28;20190;-80
2022/09/25 08:20:42;;;;;;;15.60;8.77;;;13.30;99.90;;;;;;5099784;28;20212;-81
2022/09/25 08:23:08;;;;;;;15.23;8.33;;;13.30;99.90;;;;;;5103895;28;20229;-80
2022/09/25 08:25:36;;;;;;;17.73;9.77;;;13.40;99.90;;;;;;5095810;28;20218;-80
2022/09/25 08:28:03;;;;;;;17.10;10.03;;;13.30;99.90;;;;;;5095314;28;20207;-81
2022/09/25 08:30:30;;;;;;;20.83;10.07;;;13.40;99.90;;;;;;5095601;28;20209;-81
2022/09/25 08:32:57;;;;;;;19.40;10.67;;;13.40;99.90;;;;;;5096896;28;20197;-80
2022/09/25 08:35:24;;;;;;;20.50;11.17;;;13.40;99.90;;;;;;5095510;28;20703;-80
2022/09/25 08:37:51;;;;;;;22.77;13.10;;;13.20;99.90;;;;;;5096553;28;20266;-80
2022/09/25 08:40:20;;;;;;;22.33;11.67;;;13.20;99.90;;;;;;5096197;28;20220;-80
2022/09/25 08:42:51;;;;;;;18.73;10.80;;;13.30;99.90;;;;;;5105000;28;20206;-83
2022/09/25 08:51:05;;;;;;;17.77;9.53;;;13.30;99.90;;;;;;5096063;28;20196;-80
2022/09/25 08:53:34;;;;;;;15.60;8.70;;;13.30;99.90;;;;;;5094412;28;20205;-80
2022/09/25 08:56:16;;;;;;;15.30;8.63;;;13.30;99.90;;;;;;5093959;28;20218;-79
2022/09/25 08:58:51;;;;;;;14.43;8.67;;;13.30;99.90;;;;;;5090250;28;20208;-79
2022/09/25 09:01:21;;;;;;;16.93;8.50;;;13.30;99.90;;;;;;5097535;28;20205;-79
2022/09/25 09:03:53;;;;;;;16.20;9.17;;;13.40;99.90;;;;;;5089596;28;20221;-79
2022/09/25 09:06:21;;;;;;;15.63;8.93;;;13.40;99.90;;;;;;5089829;28;20227;-80
2022/09/25 09:08:53;;;;;;;14.33;7.50;;;13.40;99.90;;;;;;5095157;28;20194;-80
2022/09/25 09:11:24;;;;;;;12.03;8.50;;;13.40;99.90;;;;;;5093586;28;20205;-80
2022/09/25 09:13:58;;;;;;;12.83;8.63;;;13.50;99.90;;;;;;5093053;28;20217;-79
2022/09/25 09:16:33;;;;;;;13.33;8.40;;;13.40;99.90;;;;;;5092109;28;20222;-79
2022/09/25 09:19:02;;;;;;;18.00;11.17;;;13.40;99.90;;;;;;5094108;28;20657;-79
2022/09/25 09:21:34;;;;;;;14.97;9.90;;;13.40;99.90;;;;;;5094662;28;20296;-79
2022/09/25 09:24:07;;;;;;;17.03;9.10;;;13.40;99.90;;;;;;5099368;28;20548;-80
2022/09/25 09:26:49;;;;;;;16.30;8.20;;;13.40;99.90;;;;;;5102347;28;20285;-79
2022/09/25 09:29:44;;;;;;;12.73;7.17;;;13.50;99.90;;;;;;5095241;28;20205;-80
2022/09/25 09:32:25;;;;;;;14.53;9.10;;;13.60;99.90;;;;;;5097598;28;20201;-79
2022/09/25 09:35:05;;;;;;;15.10;9.03;;;13.60;99.90;;;;;;5094527;28;20202;-80
2022/09/25 09:37:43;;;;;;;13.07;8.10;;;13.70;99.90;;;;;;5093775;28;20208;-80
2022/09/25 09:40:24;;;;;;;15.83;10.10;;;13.70;99.90;;;;;;5091947;28;20584;-80
2022/09/25 09:43:02;;;;;;;13.10;7.93;;;13.70;99.90;;;;;;5095526;28;20653;-80
2022/09/25 09:45:37;;;;;;;11.00;7.43;;;13.80;99.90;;;;;;5091748;28;20225;-80
2022/09/25 09:48:09;;;;;;;12.00;7.50;;;13.80;99.90;;;;;;5096957;28;20573;-80
2022/09/25 09:50:41;;;;;;;11.93;7.77;;;13.70;99.90;;;;;;5096450;28;20201;-81
2022/09/25 09:53:19;;;;;;;13.27;8.40;;;13.80;99.90;;;;;;5094537;28;20201;-80
2022/09/25 09:55:49;;;;;;;15.70;7.50;;;14.00;99.90;;;;;;5097649;28;20228;-80
2022/09/25 09:58:23;;;;;;;11.47;6.47;;;14.00;99.90;;;;;;5090642;28;20585;-80
2022/09/25 10:00:52;;;;;;;10.87;7.33;;;14.00;99.90;;;;;;5089585;28;20204;-80
2022/09/25 10:03:24;;;;;;;16.03;8.30;;;14.20;99.90;;;;;;5090913;28;20205;-80
2022/09/25 10:05:55;;;;;;;11.27;7.53;;;13.90;99.90;;;;;;5091415;28;20216;-81
2022/09/25 10:08:22;;;;;;;16.53;9.60;;;13.80;99.90;;;;;;5102259;28;20200;-79
2022/09/25 10:10:53;;;;;;;17.20;8.53;;;13.90;99.90;;;;;;5101423;28;20197;-84
2022/09/25 10:13:23;;;;;;;13.93;8.13;;;14.00;99.90;;;;;;5108467;28;20211;-81
2022/09/25 10:15:56;;;;;;;12.30;7.50;;;13.90;99.90;;;;;;5091389;28;20522;-79
2022/09/25 10:18:28;;;;;;;12.27;7.73;;;13.90;99.90;;;;;;5096222;28;20197;-79
2022/09/25 10:20:59;;;;;;;16.03;9.13;;;14.10;99.90;;;;;;5098068;28;20210;-79
2022/09/25 10:23:38;;;;;;;15.17;9.30;;;14.20;99.90;;;;;;5095710;28;20198;-81
2022/09/25 10:26:23;;;;;;;36.87;22.77;;;14.30;99.90;;;;;;5093962;28;20279;-80
2022/09/25 10:28:50;;;;;;;16.20;9.63;;;14.30;99.90;;;;;;5088338;28;20204;-81
2022/09/25 10:31:19;;;;;;;10.97;8.07;;;14.20;99.90;;;;;;5103827;28;20205;-80
2022/09/25 10:33:59;;;;;;;10.97;8.73;;;14.30;99.90;;;;;;5093728;28;20197;-80
2022/09/25 10:36:41;;;;;;;14.17;9.87;;;14.20;99.90;;;;;;5094635;28;20240;-80
2022/09/25 10:39:29;;;;;;;16.70;10.32;;;14.20;99.90;;;;;;5094698;28;20208;-80
2022/09/25 10:41:57;;;;;;;14.10;9.23;;;14.20;99.90;;;;;;5077505;28;20213;-79
2022/09/25 10:44:32;;;;;;;14.13;8.10;;;14.30;99.90;;;;;;5075764;28;20758;-80
2022/09/25 10:50:18;;;;;;;13.90;8.40;;;14.30;99.90;;;;;;5097025;28;20216;-81
2022/09/25 10:52:48;;;;;;;11.33;8.30;;;14.20;99.90;;;;;;5098209;28;20660;-80
2022/09/25 10:55:27;;;;;;;10.83;8.27;;;14.20;99.90;;;;;;5100062;28;20225;-81
2022/09/25 10:58:03;;;;;;;9.87;7.80;;;14.30;99.90;;;;;;5098722;28;20204;-80
2022/09/25 11:00:32;;;;;;;9.37;6.83;;;14.40;99.90;;;;;;5106886;28;20201;-80
2022/09/25 11:03:04;;;;;;;11.40;6.73;;;14.40;99.90;;;;;;5098416;28;20589;-80
2022/09/25 11:05:34;;;;;;;9.57;6.97;;;14.30;99.90;;;;;;5097692;28;20240;-80
2022/09/25 11:08:03;;;;;;;13.03;7.73;;;14.50;99.90;;;;;;5094828;28;20322;-81
2022/09/25 11:10:34;;;;;;;13.50;8.53;;;14.50;99.90;;;;;;5097480;28;20213;-80
2022/09/25 11:13:06;;;;;;;13.30;8.03;;;14.60;99.90;;;;;;5100498;28;20277;-80
2022/09/25 11:15:38;;;;;;;12.77;7.93;;;14.60;99.90;;;;;;5089867;28;20253;-80
2022/09/25 11:18:28;;;;;;;15.17;9.20;;;14.60;99.90;;;;;;5097312;28;20220;-79
2022/09/25 11:21:02;;;;;;;13.27;9.33;;;14.60;99.90;;;;;;5099221;28;20657;-79
2022/09/25 11:23:36;;;;;;;14.37;8.33;;;14.80;99.90;;;;;;5101583;28;20224;-80
2022/09/25 11:26:08;;;;;;;12.63;8.20;;;14.70;99.90;;;;;;5093737;28;20237;-80
2022/09/25 11:28:40;;;;;;;10.87;7.63;;;14.70;99.90;;;;;;5097262;28;20659;-79
2022/09/25 11:31:26;;;;;;;10.30;6.40;;;14.70;99.90;;;;;;5096503;28;20206;-80
2022/09/25 11:33:59;;;;;;;9.10;6.30;;;14.70;99.90;;;;;;5093900;28;20216;-80
2022/09/25 11:36:32;;;;;;;8.30;5.67;;;14.60;99.90;;;;;;5095859;28;20225;-80
2022/09/25 11:41:55;;;;;;;6.77;5.03;;;14.70;99.90;;;;;;5097129;28;20278;-81
2022/09/25 11:44:30;;;;;;;8.27;5.30;;;14.70;99.90;;;;;;5094325;28;20216;-81
2022/09/25 11:47:04;;;;;;;7.90;5.13;;;14.80;99.90;;;;;;5094601;28;20229;-80
2022/09/25 11:49:35;;;;;;;7.03;4.90;;;14.80;99.90;;;;;;5094942;28;20214;-81
2022/09/25 11:52:21;;;;;;;6.25;4.82;;;14.90;99.90;;;;;;5095694;28;20218;-82
2022/09/25 11:55:16;;;;;;;9.95;5.22;;;15.00;99.90;;;;;;5090978;28;20281;-82
2022/09/25 11:57:54;;;;;;;17.35;9.80;;;15.00;24.10;;;;;;5099686;28;20573;-81
2022/09/25 12:00:26;;;;;;;10.77;7.75;;;15.20;61.20;;;;;;5097205;28;20209;-82
2022/09/25 12:03:07;;;;;;;7.60;5.15;;;15.30;68.20;;;;;;5091705;28;20676;-81
2022/09/25 12:05:51;;;;;;;6.83;4.90;;;15.40;1.00;;;;;;5090644;28;20258;-82
2022/09/25 12:08:49;;;;;;;7.90;5.30;;;15.50;1.00;;;;;;5112110;28;20217;-83
2022/09/25 12:11:24;;;;;;;8.25;5.07;;;15.60;1.00;;;;;;5097029;28;20206;-83
2022/09/25 12:14:02;;;;;;;10.38;5.00;;;15.70;1.00;;;;;;5098800;28;20211;-81
2022/09/25 12:16:39;;;;;;;7.07;4.20;;;15.80;1.00;;;;;;5093121;28;20308;-80
2022/09/25 12:19:18;;;;;;;5.07;4.30;;;15.70;1.00;;;;;;5093248;28;20197;-81
2022/09/25 12:21:51;;;;;;;9.18;6.07;;;16.10;1.00;;;;;;5093509;28;20185;-81
2022/09/25 12:24:31;;;;;;;9.35;5.40;;;16.50;1.00;;;;;;5097182;28;20201;-83
2022/09/25 12:27:08;;;;;;;5.10;4.32;;;16.90;99.90;;;;;;5085321;28;20225;-83
2022/09/25 12:29:48;;;;;;;4.75;4.20;;;17.30;1.00;;;;;;5099937;28;20213;-83
2022/09/25 12:32:25;;;;;;;4.53;4.13;;;16.90;1.00;;;;;;5098277;28;20198;-79
2022/09/25 12:35:09;;;;;;;4.72;4.28;;;16.90;99.90;;;;;;5092401;28;20204;-82
2022/09/25 12:37:42;;;;;;;5.18;4.70;;;17.60;1.00;;;;;;5096317;28;20692;-81
2022/09/25 12:40:18;;;;;;;5.70;5.10;;;17.70;1.00;;;;;;5094906;28;20202;-81
2022/09/25 12:42:50;;;;;;;7.32;3.90;;;17.60;1.00;;;;;;5096949;28;20197;-81
2022/09/25 12:45:23;;;;;;;4.70;3.60;;;17.40;99.90;;;;;;5095194;28;20225;-82
2022/09/25 12:48:02;;;;;;;4.05;3.00;;;17.80;99.90;;;;;;5096116;28;20620;-81
2022/09/25 12:50:33;;;;;;;4.70;2.85;;;18.40;1.00;;;;;;5095345;28;20567;-81
2022/09/25 12:53:09;;;;;;;3.97;2.67;;;17.90;99.90;;;;;;5093711;28;20198;-80
2022/09/25 12:55:42;;;;;;;5.65;3.45;;;17.90;1.00;;;;;;5093953;28;20637;-80
2022/09/25 12:58:17;;;;;;;3.67;2.65;;;18.20;99.90;;;;;;5096909;28;20413;-80
2022/09/25 13:00:46;;;;;;;5.70;4.55;;;18.30;99.90;;;;;;5101397;28;20286;-80
2022/09/25 13:03:21;;;;;;;3.05;2.75;;;18.40;99.90;;;;;;5092325;28;20262;-81
2022/09/25 13:05:55;;;;;;;4.20;2.83;;;18.40;1.00;;;;;;5099904;28;20339;-80
2022/09/25 13:08:27;;;;;;;3.38;2.50;;;18.60;55.70;;;;;;5087381;28;20225;-80
2022/09/25 13:10:59;;;;;;;2.83;2.53;;;18.80;1.00;;;;;;5079766;28;20240;-80
2022/09/25 13:13:31;;;;;;;4.28;3.63;;;18.90;1.00;;;;;;5095313;28;20670;-81